Aviation Digital Data Service (ADDS)

Output produced by METARs form (1602 UTC 22 May 2015)
found at http://aviationweather.gov/adds/metars/
 
KPIT 221556Z 2216/2318 30012G22KT P6SM SCT070 
     FM230100 VRB03KT P6SM SKC